sensor_id;sensor_type;location;lat;lon;timestamp;pressure;altitude;pressure_sealevel;temperature;humidity
75788;BME280;64406;50.024;14.492;2024-01-15T00:01:58;96319.63;;;-2.05;83.96
75788;BME280;64406;50.024;14.492;2024-01-15T00:04:24;96300.00;;;-2.14;84.36
75788;BME280;64406;50.024;14.492;2024-01-15T00:06:50;96300.72;;;-2.19;84.34
75788;BME280;64406;50.024;14.492;2024-01-15T00:09:16;96313.19;;;-2.14;84.82
75788;BME280;64406;50.024;14.492;2024-01-15T00:11:42;96300.50;;;-2.17;84.79
75788;BME280;64406;50.024;14.492;2024-01-15T00:14:08;96294.31;;;-2.28;84.93
75788;BME280;64406;50.024;14.492;2024-01-15T00:16:34;96309.41;;;-2.24;84.88
75788;BME280;64406;50.024;14.492;2024-01-15T00:18:59;96295.59;;;-2.31;84.78
75788;BME280;64406;50.024;14.492;2024-01-15T00:21:25;96278.59;;;-2.40;84.79
75788;BME280;64406;50.024;14.492;2024-01-15T00:23:51;96285.97;;;-2.59;85.64
75788;BME280;64406;50.024;14.492;2024-01-15T00:26:16;96271.13;;;-2.65;85.74
75788;BME280;64406;50.024;14.492;2024-01-15T00:28:42;96271.38;;;-2.66;85.38
75788;BME280;64406;50.024;14.492;2024-01-15T00:31:08;96267.09;;;-2.72;86.11
75788;BME280;64406;50.024;14.492;2024-01-15T00:33:34;96277.44;;;-2.66;86.49
75788;BME280;64406;50.024;14.492;2024-01-15T00:35:59;96262.44;;;-2.65;85.50
75788;BME280;64406;50.024;14.492;2024-01-15T00:38:25;96260.53;;;-2.70;85.44
75788;BME280;64406;50.024;14.492;2024-01-15T00:40:50;96256.63;;;-2.67;86.34
75788;BME280;64406;50.024;14.492;2024-01-15T00:43:16;96258.75;;;-2.64;85.81
75788;BME280;64406;50.024;14.492;2024-01-15T00:45:44;96250.38;;;-2.61;85.30
75788;BME280;64406;50.024;14.492;2024-01-15T00:48:10;96239.13;;;-2.57;85.30
75788;BME280;64406;50.024;14.492;2024-01-15T00:50:35;96247.25;;;-2.58;85.48
75788;BME280;64406;50.024;14.492;2024-01-15T00:53:01;96235.09;;;-2.59;84.97
75788;BME280;64406;50.024;14.492;2024-01-15T00:55:28;96234.84;;;-2.58;84.51
75788;BME280;64406;50.024;14.492;2024-01-15T00:57:54;96240.19;;;-2.53;84.80
75788;BME280;64406;50.024;14.492;2024-01-15T01:00:19;96239.91;;;-2.56;84.46
75788;BME280;64406;50.024;14.492;2024-01-15T01:02:45;96242.53;;;-2.56;84.74
75788;BME280;64406;50.024;14.492;2024-01-15T01:05:11;96235.44;;;-2.56;84.42
75788;BME280;64406;50.024;14.492;2024-01-15T01:07:37;96239.41;;;-2.53;84.48
75788;BME280;64406;50.024;14.492;2024-01-15T01:10:02;96236.31;;;-2.50;84.36
75788;BME280;64406;50.024;14.492;2024-01-15T01:12:28;96239.72;;;-2.50;83.98
75788;BME280;64406;50.024;14.492;2024-01-15T01:14:55;96237.97;;;-2.44;83.78
75788;BME280;64406;50.024;14.492;2024-01-15T01:17:21;96233.16;;;-2.47;84.14
75788;BME280;64406;50.024;14.492;2024-01-15T01:19:46;96225.75;;;-2.50;83.45
75788;BME280;64406;50.024;14.492;2024-01-15T01:22:12;96229.97;;;-2.49;83.91
75788;BME280;64406;50.024;14.492;2024-01-15T01:24:37;96219.91;;;-2.52;83.55
75788;BME280;64406;50.024;14.492;2024-01-15T01:27:04;96229.47;;;-2.46;83.63
75788;BME280;64406;50.024;14.492;2024-01-15T01:29:29;96225.25;;;-2.47;83.10
75788;BME280;64406;50.024;14.492;2024-01-15T01:31:55;96228.69;;;-2.47;83.73
75788;BME280;64406;50.024;14.492;2024-01-15T01:34:21;96231.63;;;-2.43;83.78
75788;BME280;64406;50.024;14.492;2024-01-15T01:36:47;96234.75;;;-2.46;83.28
75788;BME280;64406;50.024;14.492;2024-01-15T01:39:13;96223.13;;;-2.50;83.42
75788;BME280;64406;50.024;14.492;2024-01-15T01:41:39;96211.59;;;-2.44;82.96
75788;BME280;64406;50.024;14.492;2024-01-15T01:44:04;96223.41;;;-2.47;82.50
75788;BME280;64406;50.024;14.492;2024-01-15T01:46:30;96211.59;;;-2.44;82.37
75788;BME280;64406;50.024;14.492;2024-01-15T01:48:57;96198.34;;;-2.49;82.61
75788;BME280;64406;50.024;14.492;2024-01-15T01:51:24;96204.16;;;-2.47;82.75
75788;BME280;64406;50.024;14.492;2024-01-15T01:53:50;96207.59;;;-2.47;82.48
75788;BME280;64406;50.024;14.492;2024-01-15T01:56:17;96193.06;;;-2.49;83.03
75788;BME280;64406;50.024;14.492;2024-01-15T01:58:44;96184.91;;;-2.48;82.49
75788;BME280;64406;50.024;14.492;2024-01-15T02:01:11;96173.59;;;-2.48;82.82
75788;BME280;64406;50.024;14.492;2024-01-15T02:03:39;96162.78;;;-2.47;81.77
75788;BME280;64406;50.024;14.492;2024-01-15T02:06:06;96175.97;;;-2.47;82.75
75788;BME280;64406;50.024;14.492;2024-01-15T02:08:31;96172.00;;;-2.49;82.33
75788;BME280;64406;50.024;14.492;2024-01-15T02:10:57;96160.09;;;-2.52;82.20
75788;BME280;64406;50.024;14.492;2024-01-15T02:13:23;96170.16;;;-2.49;81.78
75788;BME280;64406;50.024;14.492;2024-01-15T02:15:48;96149.53;;;-2.52;81.86
75788;BME280;64406;50.024;14.492;2024-01-15T02:18:14;96173.03;;;-2.50;82.35
75788;BME280;64406;50.024;14.492;2024-01-15T02:20:40;96164.81;;;-2.54;82.37
75788;BME280;64406;50.024;14.492;2024-01-15T02:23:12;96185.97;;;-2.49;82.21
75788;BME280;64406;50.024;14.492;2024-01-15T02:25:40;96210.16;;;-2.52;81.54
75788;BME280;64406;50.024;14.492;2024-01-15T02:28:08;96196.25;;;-2.47;81.13
75788;BME280;64406;50.024;14.492;2024-01-15T02:30:39;96218.38;;;-2.48;81.11
75788;BME280;64406;50.024;14.492;2024-01-15T02:33:06;96202.03;;;-2.50;81.68
75788;BME280;64406;50.024;14.492;2024-01-15T02:35:32;96192.75;;;-2.53;80.87
75788;BME280;64406;50.024;14.492;2024-01-15T02:37:58;96190.69;;;-2.51;81.51
75788;BME280;64406;50.024;14.492;2024-01-15T02:40:24;96188.28;;;-2.52;81.35
75788;BME280;64406;50.024;14.492;2024-01-15T02:42:49;96193.50;;;-2.57;81.26
75788;BME280;64406;50.024;14.492;2024-01-15T02:45:15;96191.41;;;-2.55;81.17
75788;BME280;64406;50.024;14.492;2024-01-15T02:47:41;96170.63;;;-2.52;81.14
75788;BME280;64406;50.024;14.492;2024-01-15T02:50:07;96170.03;;;-2.59;80.98
75788;BME280;64406;50.024;14.492;2024-01-15T02:52:32;96161.06;;;-2.58;81.39
75788;BME280;64406;50.024;14.492;2024-01-15T02:54:58;96185.91;;;-2.54;81.57
75788;BME280;64406;50.024;14.492;2024-01-15T02:57:23;96183.19;;;-2.59;81.12
75788;BME280;64406;50.024;14.492;2024-01-15T02:59:49;96188.72;;;-2.60;80.65
75788;BME280;64406;50.024;14.492;2024-01-15T03:02:15;96189.50;;;-2.60;80.87
75788;BME280;64406;50.024;14.492;2024-01-15T03:04:44;96188.00;;;-2.56;81.13
75788;BME280;64406;50.024;14.492;2024-01-15T03:07:10;96188.78;;;-2.55;80.39
75788;BME280;64406;50.024;14.492;2024-01-15T03:09:36;96184.56;;;-2.56;80.96
75788;BME280;64406;50.024;14.492;2024-01-15T03:12:01;96180.09;;;-2.56;80.34
75788;BME280;64406;50.024;14.492;2024-01-15T03:14:27;96177.38;;;-2.61;80.89
75788;BME280;64406;50.024;14.492;2024-01-15T03:16:53;96178.50;;;-2.57;80.48
75788;BME280;64406;50.024;14.492;2024-01-15T03:19:19;96181.06;;;-2.62;80.86
75788;BME280;64406;50.024;14.492;2024-01-15T03:21:44;96173.22;;;-2.57;80.26
75788;BME280;64406;50.024;14.492;2024-01-15T03:24:10;96171.31;;;-2.61;80.09
75788;BME280;64406;50.024;14.492;2024-01-15T03:26:35;96172.13;;;-2.61;80.28
75788;BME280;64406;50.024;14.492;2024-01-15T03:29:01;96165.72;;;-2.65;80.55
75788;BME280;64406;50.024;14.492;2024-01-15T03:31:27;96154.66;;;-2.67;80.00
75788;BME280;64406;50.024;14.492;2024-01-15T03:33:53;96151.47;;;-2.69;79.40
75788;BME280;64406;50.024;14.492;2024-01-15T03:36:18;96140.44;;;-2.66;79.80
75788;BME280;64406;50.024;14.492;2024-01-15T03:38:44;96130.88;;;-2.72;79.86
75788;BME280;64406;50.024;14.492;2024-01-15T03:41:10;96121.88;;;-2.76;80.05
75788;BME280;64406;50.024;14.492;2024-01-15T03:43:35;96119.19;;;-2.81;79.64
75788;BME280;64406;50.024;14.492;2024-01-15T03:46:01;96112.88;;;-2.80;80.05
75788;BME280;64406;50.024;14.492;2024-01-15T03:48:27;96116.53;;;-2.81;80.13
75788;BME280;64406;50.024;14.492;2024-01-15T03:50:53;96115.69;;;-2.87;79.89
75788;BME280;64406;50.024;14.492;2024-01-15T03:53:19;96127.81;;;-2.86;79.52
75788;BME280;64406;50.024;14.492;2024-01-15T03:55:44;96122.00;;;-2.88;79.57
75788;BME280;64406;50.024;14.492;2024-01-15T03:58:10;96119.09;;;-2.86;79.51
75788;BME280;64406;50.024;14.492;2024-01-15T04:00:36;96132.53;;;-2.88;79.65
75788;BME280;64406;50.024;14.492;2024-01-15T04:03:02;96136.13;;;-2.94;79.92
75788;BME280;64406;50.024;14.492;2024-01-15T04:05:28;96143.25;;;-2.94;79.87
75788;BME280;64406;50.024;14.492;2024-01-15T04:07:54;96170.72;;;-2.90;80.01
75788;BME280;64406;50.024;14.492;2024-01-15T04:10:19;96157.22;;;-2.94;80.07
75788;BME280;64406;50.024;14.492;2024-01-15T04:12:45;96168.06;;;-2.90;80.50
75788;BME280;64406;50.024;14.492;2024-01-15T04:15:13;96166.16;;;-2.95;80.22
75788;BME280;64406;50.024;14.492;2024-01-15T04:17:39;96167.81;;;-2.89;79.29
75788;BME280;64406;50.024;14.492;2024-01-15T04:20:05;96173.25;;;-2.95;79.49
75788;BME280;64406;50.024;14.492;2024-01-15T04:22:32;96169.59;;;-2.94;80.38
75788;BME280;64406;50.024;14.492;2024-01-15T04:24:59;96175.66;;;-2.94;79.69
75788;BME280;64406;50.024;14.492;2024-01-15T04:27:25;96177.50;;;-2.94;79.86
75788;BME280;64406;50.024;14.492;2024-01-15T04:29:50;96178.03;;;-2.92;79.49
75788;BME280;64406;50.024;14.492;2024-01-15T04:32:16;96173.81;;;-2.93;79.93
75788;BME280;64406;50.024;14.492;2024-01-15T04:34:42;96174.84;;;-2.94;80.20
75788;BME280;64406;50.024;14.492;2024-01-15T04:37:07;96178.53;;;-2.95;80.93
75788;BME280;64406;50.024;14.492;2024-01-15T04:39:33;96160.56;;;-2.98;80.32
75788;BME280;64406;50.024;14.492;2024-01-15T04:41:59;96161.94;;;-2.96;80.79
75788;BME280;64406;50.024;14.492;2024-01-15T04:44:24;96153.41;;;-3.03;80.39
75788;BME280;64406;50.024;14.492;2024-01-15T04:46:50;96142.88;;;-3.03;80.93
75788;BME280;64406;50.024;14.492;2024-01-15T04:49:16;96147.91;;;-3.02;80.36
75788;BME280;64406;50.024;14.492;2024-01-15T04:51:41;96161.06;;;-3.02;80.19
75788;BME280;64406;50.024;14.492;2024-01-15T04:54:07;96171.28;;;-3.05;80.67
75788;BME280;64406;50.024;14.492;2024-01-15T04:56:33;96157.56;;;-3.07;80.67
75788;BME280;64406;50.024;14.492;2024-01-15T04:58:58;96158.91;;;-3.05;80.17
75788;BME280;64406;50.024;14.492;2024-01-15T05:01:24;96168.81;;;-3.12;81.04
75788;BME280;64406;50.024;14.492;2024-01-15T05:03:49;96159.81;;;-3.16;81.13
75788;BME280;64406;50.024;14.492;2024-01-15T05:06:15;96150.56;;;-3.18;80.58
75788;BME280;64406;50.024;14.492;2024-01-15T05:08:41;96152.41;;;-3.19;81.30
75788;BME280;64406;50.024;14.492;2024-01-15T05:11:06;96132.88;;;-3.23;81.08
75788;BME280;64406;50.024;14.492;2024-01-15T05:13:32;96138.38;;;-3.24;81.57
75788;BME280;64406;50.024;14.492;2024-01-15T05:15:58;96141.00;;;-3.24;81.01
75788;BME280;64406;50.024;14.492;2024-01-15T05:18:24;96143.31;;;-3.28;81.80
75788;BME280;64406;50.024;14.492;2024-01-15T05:20:49;96143.56;;;-3.30;81.40
75788;BME280;64406;50.024;14.492;2024-01-15T05:23:15;96168.53;;;-3.32;81.84
75788;BME280;64406;50.024;14.492;2024-01-15T05:25:41;96169.09;;;-3.30;81.82
75788;BME280;64406;50.024;14.492;2024-01-15T05:28:07;96172.84;;;-3.26;82.10
75788;BME280;64406;50.024;14.492;2024-01-15T05:30:33;96181.53;;;-3.25;81.69
75788;BME280;64406;50.024;14.492;2024-01-15T05:32:58;96182.56;;;-3.26;81.46
75788;BME280;64406;50.024;14.492;2024-01-15T05:35:25;96190.00;;;-3.23;81.31
75788;BME280;64406;50.024;14.492;2024-01-15T05:37:51;96208.97;;;-3.21;80.80
75788;BME280;64406;50.024;14.492;2024-01-15T05:40:17;96202.34;;;-3.24;81.58
75788;BME280;64406;50.024;14.492;2024-01-15T05:42:42;96205.78;;;-3.23;80.99
75788;BME280;64406;50.024;14.492;2024-01-15T05:45:08;96204.97;;;-3.24;81.33
75788;BME280;64406;50.024;14.492;2024-01-15T05:47:34;96205.06;;;-3.19;81.36
75788;BME280;64406;50.024;14.492;2024-01-15T05:50:01;96202.66;;;-3.20;80.99
75788;BME280;64406;50.024;14.492;2024-01-15T05:52:27;96202.66;;;-3.20;81.29
75788;BME280;64406;50.024;14.492;2024-01-15T05:54:52;96197.22;;;-3.14;80.49
75788;BME280;64406;50.024;14.492;2024-01-15T05:57:18;96218.84;;;-3.12;80.82
75788;BME280;64406;50.024;14.492;2024-01-15T05:59:44;96208.38;;;-3.07;80.08
75788;BME280;64406;50.024;14.492;2024-01-15T06:02:10;96206.00;;;-3.08;80.36
75788;BME280;64406;50.024;14.492;2024-01-15T06:04:37;96207.59;;;-3.07;80.40
75788;BME280;64406;50.024;14.492;2024-01-15T06:07:02;96203.63;;;-3.10;80.34
75788;BME280;64406;50.024;14.492;2024-01-15T06:09:28;96207.06;;;-3.09;80.58
75788;BME280;64406;50.024;14.492;2024-01-15T06:11:55;96205.22;;;-3.09;80.00
75788;BME280;64406;50.024;14.492;2024-01-15T06:14:20;96199.94;;;-3.09;79.85
75788;BME280;64406;50.024;14.492;2024-01-15T06:16:46;96196.53;;;-3.09;80.36
75788;BME280;64406;50.024;14.492;2024-01-15T06:19:12;96188.22;;;-3.18;81.11
75788;BME280;64406;50.024;14.492;2024-01-15T06:21:38;96194.44;;;-3.24;81.16
75788;BME280;64406;50.024;14.492;2024-01-15T06:24:04;96192.97;;;-3.37;81.25
75788;BME280;64406;50.024;14.492;2024-01-15T06:26:29;96194.72;;;-3.42;81.96
75788;BME280;64406;50.024;14.492;2024-01-15T06:28:55;96204.59;;;-3.49;81.66
75788;BME280;64406;50.024;14.492;2024-01-15T06:31:21;96184.97;;;-3.59;nan
75788;BME280;64406;50.024;14.492;2024-01-15T06:33:46;96192.47;;;-3.50;81.91
75788;BME280;64406;50.024;14.492;2024-01-15T06:36:14;96190.63;;;-3.50;82.40
75788;BME280;64406;50.024;14.492;2024-01-15T06:38:40;96186.81;;;-3.42;81.87
75788;BME280;64406;50.024;14.492;2024-01-15T06:41:05;96197.16;;;-3.52;82.00
75788;BME280;64406;50.024;14.492;2024-01-15T06:43:31;96190.31;;;-3.53;81.86
75788;BME280;64406;50.024;14.492;2024-01-15T06:45:57;96191.28;;;-3.60;82.22
75788;BME280;64406;50.024;14.492;2024-01-15T06:48:22;96196.19;;;-3.63;82.24
75788;BME280;64406;50.024;14.492;2024-01-15T06:50:48;96204.75;;;-3.73;82.86
75788;BME280;64406;50.024;14.492;2024-01-15T06:53:14;96217.34;;;-3.58;83.68
75788;BME280;64406;50.024;14.492;2024-01-15T06:55:39;96226.56;;;-3.72;82.77
75788;BME280;64406;50.024;14.492;2024-01-15T06:58:05;96229.44;;;-3.74;82.88
75788;BME280;64406;50.024;14.492;2024-01-15T07:00:31;96237.59;;;-3.75;83.52
75788;BME280;64406;50.024;14.492;2024-01-15T07:02:57;96248.56;;;-3.78;83.75
75788;BME280;64406;50.024;14.492;2024-01-15T07:05:23;96242.34;;;-3.72;83.23
75788;BME280;64406;50.024;14.492;2024-01-15T07:07:49;96251.53;;;-3.75;83.64
75788;BME280;64406;50.024;14.492;2024-01-15T07:10:15;96245.69;;;-3.77;84.17
75788;BME280;64406;50.024;14.492;2024-01-15T07:12:44;96247.31;;;-3.76;83.80
75788;BME280;64406;50.024;14.492;2024-01-15T07:15:10;96252.78;;;-3.77;84.81
75788;BME280;64406;50.024;14.492;2024-01-15T07:17:36;96261.66;;;-3.67;83.79
75788;BME280;64406;50.024;14.492;2024-01-15T07:20:06;96268.53;;;-3.66;84.17
75788;BME280;64406;50.024;14.492;2024-01-15T07:22:35;96265.66;;;-3.64;83.69
75788;BME280;64406;50.024;14.492;2024-01-15T07:25:00;96265.09;;;-3.66;84.34
75788;BME280;64406;50.024;14.492;2024-01-15T07:27:26;96278.34;;;-3.61;83.61
75788;BME280;64406;50.024;14.492;2024-01-15T07:29:52;96280.97;;;-3.61;84.31
75788;BME280;64406;50.024;14.492;2024-01-15T07:32:17;96279.22;;;-3.56;83.61
75788;BME280;64406;50.024;14.492;2024-01-15T07:34:43;96285.50;;;-3.57;83.80
75788;BME280;64406;50.024;14.492;2024-01-15T07:37:09;96281.22;;;-3.63;84.14
75788;BME280;64406;50.024;14.492;2024-01-15T07:39:34;96290.72;;;-3.45;83.71
75788;BME280;64406;50.024;14.492;2024-01-15T07:42:00;96288.31;;;-3.46;83.31
75788;BME280;64406;50.024;14.492;2024-01-15T07:44:26;96291.16;;;-3.36;82.69
75788;BME280;64406;50.024;14.492;2024-01-15T07:46:52;96294.94;;;-3.44;83.11
75788;BME280;64406;50.024;14.492;2024-01-15T07:49:17;96293.13;;;-3.26;81.69
75788;BME280;64406;50.024;14.492;2024-01-15T07:51:43;96272.78;;;-3.14;81.23
75788;BME280;64406;50.024;14.492;2024-01-15T07:54:09;96276.63;;;-3.05;80.80
75788;BME280;64406;50.024;14.492;2024-01-15T07:56:57;96284.13;;;-2.97;80.48
75788;BME280;64406;50.024;14.492;2024-01-15T07:59:23;96282.28;;;-2.96;80.67
75788;BME280;64406;50.024;14.492;2024-01-15T08:01:50;96274.84;;;-2.99;80.96
75788;BME280;64406;50.024;14.492;2024-01-15T08:04:17;96264.56;;;-3.01;81.46
75788;BME280;64406;50.024;14.492;2024-01-15T08:06:42;96261.13;;;-3.02;80.92
75788;BME280;64406;50.024;14.492;2024-01-15T08:09:08;96263.22;;;-3.04;80.32
75788;BME280;64406;50.024;14.492;2024-01-15T08:11:35;96266.00;;;-2.93;80.04
75788;BME280;64406;50.024;14.492;2024-01-15T08:14:00;96271.47;;;-2.78;79.27
75788;BME280;64406;50.024;14.492;2024-01-15T08:16:26;96256.88;;;-2.69;79.67
75788;BME280;64406;50.024;14.492;2024-01-15T08:18:53;96249.09;;;-2.59;78.73
75788;BME280;64406;50.024;14.492;2024-01-15T08:21:20;96253.94;;;-2.51;78.69
75788;BME280;64406;50.024;14.492;2024-01-15T08:23:45;96255.38;;;-2.43;78.29
75788;BME280;64406;50.024;14.492;2024-01-15T08:26:11;96263.38;;;-2.33;77.67
75788;BME280;64406;50.024;14.492;2024-01-15T08:28:37;96281.66;;;-2.26;77.67
75788;BME280;64406;50.024;14.492;2024-01-15T08:31:03;96271.88;;;-2.31;77.51
75788;BME280;64406;50.024;14.492;2024-01-15T08:33:29;96277.25;;;-2.42;77.34
75788;BME280;64406;50.024;14.492;2024-01-15T08:35:55;96276.03;;;-2.35;76.87
75788;BME280;64406;50.024;14.492;2024-01-15T08:38:20;96260.03;;;-2.28;76.46
75788;BME280;64406;50.024;14.492;2024-01-15T08:40:46;96274.31;;;-2.02;76.57
75788;BME280;64406;50.024;14.492;2024-01-15T08:43:12;96242.16;;;-2.21;75.53
75788;BME280;64406;50.024;14.492;2024-01-15T08:45:41;96244.63;;;-2.14;76.50
75788;BME280;64406;50.024;14.492;2024-01-15T08:48:06;96241.66;;;-2.18;75.66
75788;BME280;64406;50.024;14.492;2024-01-15T08:50:32;96226.09;;;-2.20;75.84
75788;BME280;64406;50.024;14.492;2024-01-15T08:52:58;96222.00;;;-2.10;75.18
75788;BME280;64406;50.024;14.492;2024-01-15T08:55:24;96229.13;;;-2.11;75.07
75788;BME280;64406;50.024;14.492;2024-01-15T08:57:50;96224.66;;;-2.05;75.10
75788;BME280;64406;50.024;14.492;2024-01-15T09:00:17;96224.25;;;-1.97;74.36
75788;BME280;64406;50.024;14.492;2024-01-15T09:02:44;96236.06;;;-2.00;73.93
75788;BME280;64406;50.024;14.492;2024-01-15T09:05:10;96227.44;;;-1.95;73.96
75788;BME280;64406;50.024;14.492;2024-01-15T09:07:35;96221.94;;;-1.88;73.67
75788;BME280;64406;50.024;14.492;2024-01-15T09:10:02;96229.31;;;-1.90;73.50
75788;BME280;64406;50.024;14.492;2024-01-15T09:12:27;96248.28;;;-1.94;73.01
75788;BME280;64406;50.024;14.492;2024-01-15T09:14:53;96239.03;;;-1.96;72.71
75788;BME280;64406;50.024;14.492;2024-01-15T09:17:20;96233.81;;;-1.91;73.51
75788;BME280;64406;50.024;14.492;2024-01-15T09:19:47;96223.34;;;-1.81;72.57
75788;BME280;64406;50.024;14.492;2024-01-15T09:22:13;96230.16;;;-1.85;73.08
75788;BME280;64406;50.024;14.492;2024-01-15T09:24:43;96226.56;;;-1.74;73.27
75788;BME280;64406;50.024;14.492;2024-01-15T09:27:08;96223.69;;;-1.72;72.41
75788;BME280;64406;50.024;14.492;2024-01-15T09:29:34;96236.66;;;-1.71;72.30
75788;BME280;64406;50.024;14.492;2024-01-15T09:32:02;96240.28;;;-1.77;72.38
75788;BME280;64406;50.024;14.492;2024-01-15T09:34:29;96234.00;;;-1.71;72.25
75788;BME280;64406;50.024;14.492;2024-01-15T09:36:55;96226.09;;;-1.71;72.11
75788;BME280;64406;50.024;14.492;2024-01-15T09:39:21;96225.84;;;-1.69;71.61
75788;BME280;64406;50.024;14.492;2024-01-15T09:41:49;96249.53;;;-1.74;71.29
75788;BME280;64406;50.024;14.492;2024-01-15T09:44:15;96218.41;;;-1.72;71.31
75788;BME280;64406;50.024;14.492;2024-01-15T09:46:41;96223.94;;;-1.74;71.20
75788;BME280;64406;50.024;14.492;2024-01-15T09:49:09;96200.09;;;-1.57;71.57
75788;BME280;64406;50.024;14.492;2024-01-15T09:51:39;96200.03;;;-1.62;71.25
75788;BME280;64406;50.024;14.492;2024-01-15T09:54:09;96203.78;;;-1.58;70.85
75788;BME280;64406;50.024;14.492;2024-01-15T09:56:35;96202.03;;;-1.42;71.28
75788;BME280;64406;50.024;14.492;2024-01-15T09:59:02;96183.78;;;-0.64;70.58
75788;BME280;64406;50.024;14.492;2024-01-15T10:01:31;96164.31;;;5.15;81.34
75788;BME280;64406;50.024;14.492;2024-01-15T10:03:58;96180.06;;;1.01;62.43
75788;BME280;64406;50.024;14.492;2024-01-15T10:06:26;96176.16;;;-0.50;65.56
75788;BME280;64406;50.024;14.492;2024-01-15T10:08:57;96200.69;;;-1.07;68.27
75788;BME280;64406;50.024;14.492;2024-01-15T10:11:30;96186.34;;;-1.22;69.22
75788;BME280;64406;50.024;14.492;2024-01-15T10:14:03;96193.22;;;-1.21;69.45
75788;BME280;64406;50.024;14.492;2024-01-15T10:16:30;96179.44;;;-1.28;69.44
75788;BME280;64406;50.024;14.492;2024-01-15T10:18:56;96192.28;;;-1.42;70.36
75788;BME280;64406;50.024;14.492;2024-01-15T10:21:22;96181.47;;;-1.40;69.64
75788;BME280;64406;50.024;14.492;2024-01-15T10:23:49;96169.09;;;-1.34;70.63
75788;BME280;64406;50.024;14.492;2024-01-15T10:26:14;96173.34;;;-1.28;69.76
75788;BME280;64406;50.024;14.492;2024-01-15T10:28:40;96180.66;;;-1.41;70.23
75788;BME280;64406;50.024;14.492;2024-01-15T10:31:06;96160.47;;;-1.20;69.47
75788;BME280;64406;50.024;14.492;2024-01-15T10:33:32;96167.81;;;-1.27;69.98
75788;BME280;64406;50.024;14.492;2024-01-15T10:35:59;96146.47;;;-1.20;69.69
75788;BME280;64406;50.024;14.492;2024-01-15T10:38:26;96167.16;;;-1.12;69.61
75788;BME280;64406;50.024;14.492;2024-01-15T10:40:55;96162.31;;;-1.20;69.57
75788;BME280;64406;50.024;14.492;2024-01-15T10:43:22;96164.94;;;-1.25;69.72
75788;BME280;64406;50.024;14.492;2024-01-15T10:45:49;96159.91;;;-1.27;69.72
75788;BME280;64406;50.024;14.492;2024-01-15T10:48:17;96175.63;;;-1.42;68.61
75788;BME280;64406;50.024;14.492;2024-01-15T10:50:44;96161.22;;;-1.29;68.90
75788;BME280;64406;50.024;14.492;2024-01-15T10:53:11;96173.88;;;-0.89;69.00
75788;BME280;64406;50.024;14.492;2024-01-15T10:55:38;96163.19;;;-1.10;68.02
75788;BME280;64406;50.024;14.492;2024-01-15T10:58:05;96157.44;;;-0.96;68.89
75788;BME280;64406;50.024;14.492;2024-01-15T11:00:34;96173.56;;;-0.98;68.11
75788;BME280;64406;50.024;14.492;2024-01-15T11:03:01;96162.19;;;-0.98;68.06
75788;BME280;64406;50.024;14.492;2024-01-15T11:05:28;96152.44;;;-0.98;67.73
75788;BME280;64406;50.024;14.492;2024-01-15T11:07:58;96157.16;;;-1.00;68.53
75788;BME280;64406;50.024;14.492;2024-01-15T11:10:57;96173.03;;;-0.95;67.64
75788;BME280;64406;50.024;14.492;2024-01-15T11:15:58;96169.03;;;-1.02;68.01
75788;BME280;64406;50.024;14.492;2024-01-15T11:18:40;96156.91;;;-0.93;68.61
75788;BME280;64406;50.024;14.492;2024-01-15T11:23:58;96151.44;;;-0.82;67.74
75788;BME280;64406;50.024;14.492;2024-01-15T11:29:28;96153.03;;;-0.86;67.45
75788;BME280;64406;50.024;14.492;2024-01-15T11:32:00;96162.31;;;-0.78;67.66
75788;BME280;64406;50.024;14.492;2024-01-15T11:34:55;96167.59;;;-0.78;67.16
75788;BME280;64406;50.024;14.492;2024-01-15T11:37:26;96153.03;;;-0.86;67.65
75788;BME280;64406;50.024;14.492;2024-01-15T11:39:53;96161.47;;;-0.84;68.12
75788;BME280;64406;50.024;14.492;2024-01-15T11:42:20;96150.94;;;-0.78;67.80
75788;BME280;64406;50.024;14.492;2024-01-15T11:44:46;96159.34;;;-0.87;67.67
75788;BME280;64406;50.024;14.492;2024-01-15T11:47:12;96166.78;;;-0.84;68.07
75788;BME280;64406;50.024;14.492;2024-01-15T11:52:26;96167.38;;;-0.71;67.43
75788;BME280;64406;50.024;14.492;2024-01-15T11:55:07;96148.00;;;-0.82;67.93
75788;BME280;64406;50.024;14.492;2024-01-15T11:57:42;96150.63;;;-0.92;67.68
75788;BME280;64406;50.024;14.492;2024-01-15T12:00:11;96148.28;;;-0.84;68.15
75788;BME280;64406;50.024;14.492;2024-01-15T12:02:39;96153.00;;;-0.91;68.41
75788;BME280;64406;50.024;14.492;2024-01-15T12:05:05;96144.00;;;-0.90;68.13
75788;BME280;64406;50.024;14.492;2024-01-15T12:07:31;96147.38;;;-0.99;68.68
75788;BME280;64406;50.024;14.492;2024-01-15T12:09:57;96151.59;;;-1.03;68.20
75788;BME280;64406;50.024;14.492;2024-01-15T12:12:58;96156.59;;;-1.07;69.01
75788;BME280;64406;50.024;14.492;2024-01-15T12:15:27;96134.34;;;-1.16;68.72
75788;BME280;64406;50.024;14.492;2024-01-15T12:17:59;96143.09;;;-1.11;69.42
75788;BME280;64406;50.024;14.492;2024-01-15T12:20:26;96148.09;;;-1.14;68.55
75788;BME280;64406;50.024;14.492;2024-01-15T12:22:52;96133.34;;;-1.10;69.58
75788;BME280;64406;50.024;14.492;2024-01-15T12:25:17;96133.34;;;-1.10;68.60
75788;BME280;64406;50.024;14.492;2024-01-15T12:27:43;96156.50;;;-1.22;68.79
75788;BME280;64406;50.024;14.492;2024-01-15T12:30:13;96122.13;;;-1.27;69.50
75788;BME280;64406;50.024;14.492;2024-01-15T12:32:42;96152.00;;;-1.22;69.18
75788;BME280;64406;50.024;14.492;2024-01-15T12:35:09;96144.59;;;-1.25;69.18
75788;BME280;64406;50.024;14.492;2024-01-15T12:37:36;96139.91;;;-1.13;69.11
75788;BME280;64406;50.024;14.492;2024-01-15T12:40:03;96135.66;;;-1.19;68.81
75788;BME280;64406;50.024;14.492;2024-01-15T12:42:32;96144.91;;;-1.16;68.63
75788;BME280;64406;50.024;14.492;2024-01-15T12:45:00;96140.69;;;-1.17;68.94
75788;BME280;64406;50.024;14.492;2024-01-15T12:47:26;96135.75;;;-1.03;68.59
75788;BME280;64406;50.024;14.492;2024-01-15T12:49:52;96136.13;;;-0.79;67.46
75788;BME280;64406;50.024;14.492;2024-01-15T12:52:21;96126.72;;;-0.50;66.73
75788;BME280;64406;50.024;14.492;2024-01-15T12:54:50;96130.34;;;-0.66;67.35
75788;BME280;64406;50.024;14.492;2024-01-15T12:57:16;96144.19;;;-0.49;66.96
75788;BME280;64406;50.024;14.492;2024-01-15T12:59:46;96140.75;;;-0.44;66.67